Time;durP1;ratioP1;P1;durP2;ratioP2;P2;SDS_P1;SDS_P2;PMS_P1;PMS_P2;Temp;Humidity;BMP_temperature;BMP_pressure;BME280_temperature;BME280_humidity;BME280_pressure;Samples;Min_cycle;Max_cycle;Signal;HPM_P1;HPM_P2
2023/01/04 00:00:50;;;;;;;14.38;8.13;;;4.70;99.90;;;;;;5093207;28;20043;-81
2023/01/04 00:03:16;;;;;;;16.80;9.38;;;4.70;99.90;;;;;;5092587;28;20564;-80
2023/01/04 00:05:42;;;;;;;14.00;9.45;;;4.80;99.90;;;;;;5090627;28;20362;-81
2023/01/04 00:08:08;;;;;;;13.73;10.38;;;4.70;99.90;;;;;;5093199;28;20039;-80
2023/01/04 00:10:34;;;;;;;13.70;8.55;;;4.70;99.90;;;;;;5092191;28;20044;-82
2023/01/04 00:13:01;;;;;;;15.63;9.32;;;4.70;99.90;;;;;;5091849;28;20054;-81
2023/01/04 00:15:27;;;;;;;13.63;8.77;;;4.60;99.90;;;;;;5090116;28;20027;-81
2023/01/04 00:17:53;;;;;;;16.50;11.15;;;4.60;99.90;;;;;;5076811;28;20048;-81
2023/01/04 00:20:19;;;;;;;14.35;9.45;;;4.50;99.90;;;;;;5072424;28;20040;-81
2023/01/04 00:22:45;;;;;;;18.15;10.23;;;4.50;99.90;;;;;;5060110;28;20032;-81
2023/01/04 00:25:11;;;;;;;13.07;8.93;;;4.50;99.90;;;;;;5064324;28;20099;-79
2023/01/04 00:27:38;;;;;;;12.85;8.80;;;4.50;99.90;;;;;;5075339;28;20052;-81
2023/01/04 00:30:04;;;;;;;17.23;10.32;;;4.40;99.90;;;;;;5075379;28;20024;-82
2023/01/04 00:32:30;;;;;;;15.10;9.73;;;4.40;99.90;;;;;;5074026;28;20385;-81
2023/01/04 00:34:57;;;;;;;14.65;9.98;;;4.50;99.90;;;;;;5073214;28;20028;-81
2023/01/04 00:37:23;;;;;;;17.00;10.43;;;4.50;99.90;;;;;;5071427;28;20143;-81
2023/01/04 00:39:49;;;;;;;15.55;9.73;;;4.40;99.90;;;;;;5073260;28;20028;-81
2023/01/04 00:42:15;;;;;;;16.55;10.00;;;4.40;99.90;;;;;;5071737;28;20394;-80
2023/01/04 00:44:41;;;;;;;18.33;10.65;;;4.50;99.90;;;;;;5053905;28;20052;-80
2023/01/04 00:47:07;;;;;;;18.70;10.13;;;4.40;99.90;;;;;;5036334;28;20044;-86
2023/01/04 00:49:33;;;;;;;16.27;11.25;;;4.40;99.90;;;;;;5071255;28;20024;-82
2023/01/04 00:52:00;;;;;;;18.40;12.73;;;4.50;99.90;;;;;;5037038;28;20044;-81
2023/01/04 00:54:26;;;;;;;21.95;12.02;;;4.50;99.90;;;;;;5053405;28;20381;-82
2023/01/04 00:56:52;;;;;;;25.02;13.68;;;4.50;99.90;;;;;;5070363;28;20040;-82
2023/01/04 00:59:20;;;;;;;21.52;14.45;;;4.50;99.90;;;;;;5071217;28;20059;-81
2023/01/04 01:01:46;;;;;;;21.60;13.43;;;4.50;99.90;;;;;;5071620;28;20037;-82
2023/01/04 01:04:15;;;;;;;20.77;14.32;;;4.40;99.90;;;;;;5071276;28;20393;-80
2023/01/04 01:06:41;;;;;;;27.38;16.00;;;4.40;99.90;;;;;;5051738;28;20044;-81
2023/01/04 01:09:08;;;;;;;23.48;15.35;;;4.40;99.90;;;;;;5053058;28;20059;-82
2023/01/04 01:11:35;;;;;;;27.90;16.77;;;4.40;99.90;;;;;;5053181;28;20032;-81
2023/01/04 01:14:02;;;;;;;30.60;18.73;;;4.40;99.90;;;;;;5056009;28;20036;-82
2023/01/04 01:16:28;;;;;;;27.67;17.98;;;4.50;99.90;;;;;;5071804;28;20052;-82
2023/01/04 01:18:54;;;;;;;31.23;19.40;;;4.50;99.90;;;;;;5073715;28;20032;-83
2023/01/04 01:21:23;;;;;;;28.67;17.90;;;4.50;99.90;;;;;;5070749;28;20036;-82
2023/01/04 01:23:50;;;;;;;28.80;18.75;;;4.50;99.90;;;;;;5052383;28;20425;-82
2023/01/04 01:26:18;;;;;;;31.98;21.63;;;4.50;99.90;;;;;;5051264;28;20051;-80
2023/01/04 01:28:45;;;;;;;37.47;20.80;;;4.60;99.90;;;;;;5053263;28;20500;-82
2023/01/04 01:31:14;;;;;;;30.58;18.77;;;4.60;99.90;;;;;;5071600;28;20027;-82
2023/01/04 01:33:42;;;;;;;32.70;19.60;;;4.50;99.90;;;;;;5071500;28;20067;-81
2023/01/04 01:36:11;;;;;;;35.17;20.38;;;4.50;99.90;;;;;;5070158;28;20382;-81
2023/01/04 01:38:38;;;;;;;33.50;20.25;;;4.60;99.90;;;;;;5070973;28;20029;-81
2023/01/04 01:41:06;;;;;;;36.25;23.00;;;4.50;99.90;;;;;;5071258;28;20039;-80
2023/01/04 01:43:51;;;;;;;35.55;20.92;;;4.50;99.90;;;;;;5052583;28;20036;-80
2023/01/04 01:46:24;;;;;;;37.35;22.52;;;4.70;99.90;;;;;;5069291;28;20063;-80
2023/01/04 01:48:55;;;;;;;36.08;21.25;;;4.60;99.90;;;;;;5071553;28;20032;-82
2023/01/04 01:51:21;;;;;;;;;;;4.60;99.90;;;;;;5053749;28;20424;-82
2023/01/04 01:53:58;;;;;;;32.55;19.58;;;4.60;99.90;;;;;;5071460;28;20353;-82
2023/01/04 01:56:28;;;;;;;32.92;20.33;;;4.60;99.90;;;;;;5069731;28;20035;-82
2023/01/04 01:58:57;;;;;;;21.67;14.63;;;4.50;99.90;;;;;;5071535;28;20032;-82
2023/01/04 02:01:24;;;;;;;31.23;19.45;;;4.50;99.90;;;;;;5052667;28;20041;-81
2023/01/04 02:03:50;;;;;;;30.48;19.67;;;4.60;99.90;;;;;;5071560;28;20040;-81
2023/01/04 02:06:30;;;;;;;31.58;19.65;;;4.60;99.90;;;;;;5051413;28;20041;-80
2023/01/04 02:08:57;;;;;;;30.23;19.15;;;4.70;99.90;;;;;;5071289;28;20040;-81
2023/01/04 02:11:23;;;;;;;28.75;18.95;;;4.70;99.90;;;;;;5070699;28;20035;-80
2023/01/04 02:16:46;;;;;;;25.52;17.42;;;4.70;99.90;;;;;;5069452;28;20045;-81
2023/01/04 02:19:33;;;;;;;27.35;17.73;;;4.60;99.90;;;;;;5076196;28;20044;-81
2023/01/04 02:22:32;;;;;;;25.55;18.05;;;4.70;99.90;;;;;;5079654;28;20033;-81
2023/01/04 02:25:32;;;;;;;24.35;16.88;;;4.70;99.90;;;;;;5062309;28;20049;-79
2023/01/04 02:28:33;;;;;;;26.20;17.17;;;4.80;99.90;;;;;;5075443;28;20028;-80
2023/01/04 02:31:24;;;;;;;26.63;17.58;;;4.70;99.90;;;;;;5016753;28;20589;-80
2023/01/04 02:34:12;;;;;;;25.98;16.20;;;4.80;99.90;;;;;;5071880;28;20041;-80
2023/01/04 02:36:38;;;;;;;23.05;15.40;;;4.80;99.90;;;;;;5053767;28;20481;-80
2023/01/04 02:39:25;;;;;;;23.85;16.20;;;4.80;99.90;;;;;;5074629;28;20091;-82
2023/01/04 02:42:03;;;;;;;23.60;15.43;;;4.80;99.90;;;;;;5069974;28;20033;-80
2023/01/04 02:44:56;;;;;;;23.85;15.98;;;4.80;99.90;;;;;;5073721;28;20040;-81
2023/01/04 02:50:32;;;;;;;21.50;14.15;;;4.80;99.90;;;;;;5070502;28;20064;-81
2023/01/04 02:53:11;;;;;;;20.08;13.70;;;4.80;99.90;;;;;;5056269;28;20036;-78
2023/01/04 02:56:10;;;;;;;23.58;14.95;;;4.80;99.90;;;;;;5072033;28;20032;-80
2023/01/04 02:58:57;;;;;;;23.00;15.13;;;4.70;99.90;;;;;;5032391;28;20478;-79
2023/01/04 03:07:48;;;;;;;22.83;15.68;;;4.70;99.90;;;;;;5067126;28;20036;-77
2023/01/04 03:10:37;;;;;;;22.55;14.68;;;4.80;99.90;;;;;;5073998;28;20055;-80
2023/01/04 03:13:35;;;;;;;24.60;15.07;;;4.90;99.90;;;;;;5074342;28;20052;-80
2023/01/04 03:16:09;;;;;;;26.02;15.63;;;4.90;99.90;;;;;;5072322;28;20461;-79
2023/01/04 03:18:41;;;;;;;23.42;16.40;;;4.90;99.90;;;;;;5072992;28;20035;-79
2023/01/04 03:21:11;;;;;;;21.92;15.43;;;4.90;99.90;;;;;;5073716;28;20028;-79
2023/01/04 03:35:26;;;;;;;18.30;12.88;;;5.00;99.90;;;;;;5072173;28;20747;-79
2023/01/04 03:49:56;;;;;;;18.70;12.15;;;5.10;83.90;;;;;;5073074;28;20033;-79
2023/01/04 03:52:25;;;;;;;16.13;12.27;;;5.10;79.60;;;;;;5072847;28;20052;-78
2023/01/04 03:54:54;;;;;;;20.02;12.13;;;5.10;75.40;;;;;;5072451;28;20714;-79
2023/01/04 03:57:22;;;;;;;20.85;12.68;;;5.20;71.00;;;;;;5055017;28;20037;-80
2023/01/04 03:59:52;;;;;;;18.52;12.57;;;5.10;69.10;;;;;;5073169;28;20032;-79
2023/01/04 04:02:23;;;;;;;16.92;11.90;;;5.10;66.80;;;;;;5038301;28;20033;-79
2023/01/04 04:10:19;;;;;;;18.02;11.98;;;5.10;64.50;;;;;;5068099;28;20504;-81
2023/01/04 04:12:47;;;;;;;18.08;11.50;;;5.10;61.10;;;;;;5054051;28;20047;-80
2023/01/04 04:15:14;;;;;;;17.98;11.82;;;5.10;59.40;;;;;;5071148;28;20041;-79
2023/01/04 04:17:40;;;;;;;16.73;10.93;;;5.20;58.30;;;;;;5071909;28;20053;-79
2023/01/04 04:20:07;;;;;;;20.38;12.98;;;5.20;56.90;;;;;;5054708;28;20032;-79
2023/01/04 04:22:33;;;;;;;15.98;10.93;;;5.20;55.90;;;;;;5071840;28;20036;-78
2023/01/04 04:24:59;;;;;;;17.55;10.23;;;5.20;53.70;;;;;;5053627;28;20041;-79
2023/01/04 04:27:25;;;;;;;15.93;10.32;;;5.20;51.90;;;;;;5071683;28;20040;-77
2023/01/04 04:29:52;;;;;;;13.80;9.70;;;5.20;49.80;;;;;;5072528;28;20063;-79
2023/01/04 04:32:18;;;;;;;13.73;9.13;;;5.20;46.60;;;;;;5054687;28;20029;-79
2023/01/04 04:34:44;;;;;;;13.07;8.40;;;5.20;44.90;;;;;;5070887;28;20028;-79
2023/01/04 04:37:11;;;;;;;16.52;8.43;;;5.30;41.60;;;;;;5071795;28;20043;-80
2023/01/04 04:39:37;;;;;;;14.20;8.32;;;5.30;42.60;;;;;;5071342;28;20044;-81
2023/01/04 04:42:03;;;;;;;12.32;8.10;;;5.30;45.20;;;;;;5054448;28;20032;-80
2023/01/04 04:44:29;;;;;;;12.68;7.75;;;5.30;47.20;;;;;;5052601;28;20043;-78
2023/01/04 04:46:55;;;;;;;11.77;7.75;;;5.30;48.10;;;;;;5070996;28;20033;-79
2023/01/04 04:49:21;;;;;;;9.73;7.13;;;5.20;50.20;;;;;;5071921;28;20021;-78
2023/01/04 04:51:48;;;;;;;11.82;7.32;;;5.20;50.10;;;;;;5071107;28;20327;-79
2023/01/04 04:54:16;;;;;;;11.25;7.32;;;5.20;46.40;;;;;;5072196;28;20358;-80
2023/01/04 04:56:42;;;;;;;12.73;8.10;;;5.20;40.70;;;;;;5069850;28;20032;-79
2023/01/04 04:59:09;;;;;;;11.70;6.85;;;5.20;32.50;;;;;;5071096;28;20139;-80
2023/01/04 05:01:35;;;;;;;12.10;7.22;;;5.20;28.30;;;;;;5071044;28;20420;-80
2023/01/04 05:04:01;;;;;;;14.55;8.13;;;5.20;28.30;;;;;;5071470;28;20040;-78
2023/01/04 05:06:27;;;;;;;10.77;6.93;;;5.20;24.50;;;;;;5069325;28;20084;-77
2023/01/04 05:08:53;;;;;;;13.48;8.43;;;5.20;24.90;;;;;;5071919;28;20051;-78
2023/01/04 05:12:58;;;;;;;14.90;9.40;;;5.20;26.20;;;;;;5071785;28;20036;-78
2023/01/04 05:14:06;;;;;;;13.65;8.02;;;5.20;28.40;;;;;;5068000;28;20036;-78
2023/01/04 05:16:32;;;;;;;15.90;9.38;;;5.10;29.70;;;;;;5069083;28;20056;-78
2023/01/04 05:18:58;;;;;;;14.77;8.10;;;5.20;30.00;;;;;;5071359;28;20028;-78
2023/01/04 05:21:24;;;;;;;16.60;9.30;;;5.20;31.10;;;;;;5071231;28;20029;-78
2023/01/04 05:23:50;;;;;;;18.13;9.13;;;5.20;31.70;;;;;;5070521;28;20036;-79
2023/01/04 05:26:16;;;;;;;14.48;9.43;;;5.20;34.00;;;;;;5069924;28;20040;-78
2023/01/04 05:28:43;;;;;;;19.40;10.43;;;5.20;34.10;;;;;;5070626;28;20032;-78
2023/01/04 05:31:09;;;;;;;17.92;10.07;;;5.10;36.60;;;;;;5071095;28;20025;-78
2023/01/04 05:33:35;;;;;;;18.23;11.10;;;5.10;39.60;;;;;;5052369;28;20036;-78
2023/01/04 05:36:02;;;;;;;18.20;11.68;;;5.10;43.40;;;;;;5069823;28;20032;-78
2023/01/04 05:38:29;;;;;;;21.67;12.35;;;5.20;44.80;;;;;;5070588;28;20032;-78
2023/01/04 05:40:56;;;;;;;20.08;10.82;;;5.20;45.10;;;;;;5071103;28;20393;-78
2023/01/04 05:43:23;;;;;;;20.42;11.88;;;5.20;44.60;;;;;;5070785;28;20039;-78
2023/01/04 05:45:52;;;;;;;19.17;11.27;;;5.20;44.10;;;;;;5069200;28;20044;-78
2023/01/04 05:48:19;;;;;;;19.25;10.95;;;5.20;44.30;;;;;;5053398;28;20024;-78
2023/01/04 05:50:45;;;;;;;20.58;12.50;;;5.30;43.00;;;;;;5070269;28;20028;-78
2023/01/04 05:53:13;;;;;;;18.27;10.02;;;5.30;43.60;;;;;;5071413;28;20043;-78
2023/01/04 05:55:39;;;;;;;20.88;11.20;;;5.40;41.00;;;;;;5068723;28;20028;-79
2023/01/04 05:58:05;;;;;;;20.52;11.50;;;5.40;39.30;;;;;;5070833;28;20071;-79
2023/01/04 06:00:31;;;;;;;18.38;10.32;;;5.40;38.30;;;;;;5070301;28;20040;-78
2023/01/04 06:02:57;;;;;;;20.35;10.90;;;5.40;38.40;;;;;;5070907;28;20039;-78
2023/01/04 06:05:24;;;;;;;18.05;10.70;;;5.50;37.50;;;;;;5069487;28;20051;-78
2023/01/04 06:07:50;;;;;;;18.15;10.75;;;5.50;37.20;;;;;;5070148;28;20549;-78
2023/01/04 06:10:18;;;;;;;18.75;10.38;;;5.50;37.80;;;;;;5074132;28;20393;-78
2023/01/04 06:12:46;;;;;;;17.50;11.50;;;5.60;39.00;;;;;;5074206;28;20036;-77
2023/01/04 06:15:12;;;;;;;17.52;10.45;;;5.60;40.50;;;;;;5056209;28;20025;-78
2023/01/04 06:17:39;;;;;;;18.88;10.38;;;5.50;42.10;;;;;;5074085;28;20504;-77
2023/01/04 06:20:08;;;;;;;22.05;12.20;;;5.60;41.40;;;;;;5075031;28;20033;-76
2023/01/04 06:22:36;;;;;;;20.80;11.98;;;5.60;37.30;;;;;;5074231;28;20127;-77
2023/01/04 06:25:03;;;;;;;19.20;10.75;;;5.60;34.90;;;;;;5073280;28;20053;-77
2023/01/04 06:27:29;;;;;;;20.55;11.38;;;5.70;31.70;;;;;;5074123;28;20139;-77
2023/01/04 06:29:55;;;;;;;18.90;10.40;;;5.70;31.00;;;;;;5056376;28;20095;-78
2023/01/04 06:32:21;;;;;;;18.10;10.68;;;5.70;28.20;;;;;;5074318;28;20043;-78
2023/01/04 06:34:48;;;;;;;17.58;10.73;;;5.80;27.20;;;;;;5072269;28;20032;-78
2023/01/04 06:37:14;;;;;;;19.23;10.75;;;5.80;26.90;;;;;;5074248;28;20488;-78
2023/01/04 06:39:40;;;;;;;17.15;11.07;;;5.90;22.50;;;;;;5079143;28;20039;-80
2023/01/04 06:42:43;;;;;;;16.65;9.80;;;5.90;19.90;;;;;;5083850;28;20053;-79
2023/01/04 06:44:52;;;;;;;17.15;10.48;;;5.90;18.50;;;;;;5083596;28;20040;-79
2023/01/04 06:47:18;;;;;;;15.02;9.80;;;6.00;17.30;;;;;;5067470;28;20385;-80
2023/01/04 06:49:44;;;;;;;16.73;9.32;;;6.00;15.60;;;;;;5079209;28;20404;-79
2023/01/04 06:52:11;;;;;;;15.65;9.85;;;6.00;14.70;;;;;;5076382;28;20051;-78
2023/01/04 06:54:37;;;;;;;15.88;9.27;;;6.00;14.40;;;;;;5065902;28;20037;-78
2023/01/04 06:57:03;;;;;;;14.38;9.18;;;6.00;12.50;;;;;;5074201;28;20024;-79
2023/01/04 06:59:29;;;;;;;14.10;9.23;;;6.10;9.70;;;;;;5073992;28;20454;-80
2023/01/04 07:01:55;;;;;;;17.15;9.27;;;6.10;8.00;;;;;;5069057;28;20028;-82
2023/01/04 07:04:21;;;;;;;17.35;10.25;;;6.10;8.50;;;;;;5055311;28;20053;-84
2023/01/04 07:06:47;;;;;;;14.13;8.02;;;6.10;7.70;;;;;;5054026;28;20037;-81
2023/01/04 07:09:13;;;;;;;15.88;8.80;;;6.20;7.10;;;;;;5073546;28;20029;-82
2023/01/04 07:11:40;;;;;;;14.77;8.60;;;6.20;5.80;;;;;;5072784;28;20029;-78
2023/01/04 07:14:06;;;;;;;13.23;8.07;;;6.20;5.10;;;;;;5073491;28;20394;-80
2023/01/04 07:16:32;;;;;;;15.85;9.00;;;6.20;3.80;;;;;;5063445;28;20478;-79
2023/01/04 07:18:58;;;;;;;11.95;7.53;;;6.30;3.10;;;;;;5064844;28;20032;-80
2023/01/04 07:21:25;;;;;;;13.02;7.40;;;6.30;1.70;;;;;;5064139;28;20040;-79
2023/01/04 07:23:51;;;;;;;14.30;8.35;;;6.30;2.00;;;;;;5062847;28;20040;-77
2023/01/04 07:26:17;;;;;;;14.05;7.88;;;6.30;2.40;;;;;;5064279;28;20029;-79
2023/01/04 07:31:28;;;;;;;11.30;6.25;;;6.30;3.10;;;;;;5067904;28;20047;-81
2023/01/04 07:33:54;;;;;;;10.48;7.00;;;6.30;2.80;;;;;;5054860;28;20036;-81
2023/01/04 07:36:20;;;;;;;13.90;6.75;;;6.40;2.10;;;;;;5071656;28;20037;-80
2023/01/04 07:38:47;;;;;;;10.98;6.53;;;6.40;1.10;;;;;;5072316;28;20044;-79
2023/01/04 07:41:13;;;;;;;13.25;7.78;;;6.50;1.00;;;;;;5073289;28;20381;-81
2023/01/04 07:43:39;;;;;;;15.65;7.65;;;6.50;1.00;;;;;;5072080;28;20041;-79
2023/01/04 07:46:05;;;;;;;10.32;5.55;;;6.60;1.00;;;;;;5071414;28;20028;-79
2023/01/04 07:48:31;;;;;;;14.52;8.63;;;6.60;1.00;;;;;;5054687;28;20028;-78
2023/01/04 07:50:57;;;;;;;20.48;11.20;;;6.60;1.00;;;;;;5072684;28;20033;-79
2023/01/04 07:53:24;;;;;;;49.50;24.38;;;6.60;1.00;;;;;;5055176;28;20470;-81
2023/01/04 07:55:57;;;;;;;52.80;27.20;;;6.60;1.00;;;;;;5071094;28;20450;-80
2023/01/04 07:58:24;;;;;;;91.00;45.35;;;6.70;1.00;;;;;;5067573;28;20500;-78
2023/01/04 08:00:51;;;;;;;42.65;21.63;;;6.70;1.00;;;;;;5053429;28;20044;-79
2023/01/04 08:03:17;;;;;;;57.08;28.65;;;6.70;1.00;;;;;;5072410;28;20032;-79
2023/01/04 08:05:43;;;;;;;93.97;48.70;;;6.80;1.00;;;;;;5070677;28;20032;-78
2023/01/04 08:08:12;;;;;;;178.50;83.25;;;6.80;1.00;;;;;;5072504;28;20059;-79
2023/01/04 08:10:38;;;;;;;225.73;106.15;;;6.80;1.00;;;;;;5053711;28;20040;-79
2023/01/04 08:13:05;;;;;;;121.50;57.40;;;6.80;1.00;;;;;;5072884;28;20035;-79
2023/01/04 08:15:31;;;;;;;68.95;35.28;;;6.90;1.00;;;;;;5052622;28;20046;-79
2023/01/04 08:17:57;;;;;;;22.08;11.13;;;6.90;1.00;;;;;;5084069;28;20046;-79
2023/01/04 08:20:23;;;;;;;92.28;42.65;;;6.90;1.00;;;;;;5093159;28;20138;-79
2023/01/04 08:22:49;;;;;;;56.20;24.52;;;7.00;1.00;;;;;;5090666;28;20040;-79
2023/01/04 08:25:15;;;;;;;89.25;38.90;;;7.00;1.00;;;;;;5073002;28;20044;-79
2023/01/04 08:27:42;;;;;;;131.93;57.20;;;7.00;1.00;;;;;;5092054;28;20028;-78
2023/01/04 08:30:08;;;;;;;68.53;31.95;;;7.10;1.00;;;;;;5092506;28;20028;-81
2023/01/04 08:32:34;;;;;;;151.00;65.53;;;7.10;1.00;;;;;;5091608;28;20035;-73
2023/01/04 08:35:01;;;;;;;87.85;39.55;;;7.10;1.00;;;;;;5090803;28;20040;-74
2023/01/04 08:37:28;;;;;;;15.13;8.32;;;7.10;1.00;;;;;;5080844;28;20032;-72
2023/01/04 08:39:55;;;;;;;14.65;6.65;;;7.10;1.00;;;;;;5082231;28;20028;-73
2023/01/04 08:42:21;;;;;;;8.27;4.75;;;7.10;1.00;;;;;;5084402;28;20028;-73
2023/01/04 08:44:47;;;;;;;13.43;8.13;;;7.20;1.00;;;;;;5090081;28;20047;-73
2023/01/04 08:47:13;;;;;;;12.98;9.65;;;7.20;1.00;;;;;;5092084;28;20024;-74
2023/01/04 08:49:39;;;;;;;25.23;18.20;;;7.20;1.00;;;;;;5087493;28;20024;-74
2023/01/04 08:52:07;;;;;;;6.90;4.97;;;7.20;1.00;;;;;;5082823;28;20024;-73
2023/01/04 08:54:34;;;;;;;10.07;8.30;;;7.20;1.00;;;;;;5086277;28;20040;-73
2023/01/04 08:57:00;;;;;;;6.10;4.50;;;7.20;1.00;;;;;;5082518;28;20032;-74
2023/01/04 08:59:26;;;;;;;11.13;5.60;;;7.30;1.00;;;;;;5084026;28;20492;-72
2023/01/04 09:01:52;;;;;;;9.23;4.35;;;7.30;1.00;;;;;;5086503;28;20032;-73
2023/01/04 09:04:18;;;;;;;5.47;3.13;;;7.30;1.00;;;;;;5090890;28;20036;-74
2023/01/04 09:06:44;;;;;;;8.25;4.07;;;7.30;1.00;;;;;;5090337;28;20453;-74
2023/01/04 09:09:11;;;;;;;5.45;3.90;;;7.40;1.00;;;;;;5091606;28;20404;-74
2023/01/04 09:11:37;;;;;;;6.40;4.45;;;7.40;1.00;;;;;;5090885;28;20038;-74
2023/01/04 09:14:04;;;;;;;5.57;3.08;;;7.40;1.00;;;;;;5091325;28;20039;-74
2023/01/04 09:16:30;;;;;;;4.82;3.03;;;7.40;1.00;;;;;;5085965;28;20044;-75
2023/01/04 09:18:56;;;;;;;4.75;3.65;;;7.40;1.00;;;;;;5070860;28;20044;-74
2023/01/04 09:21:22;;;;;;;7.75;4.05;;;7.40;1.00;;;;;;5071740;28;20031;-74
2023/01/04 09:23:48;;;;;;;5.80;3.13;;;7.40;1.00;;;;;;5070426;28;20410;-75
2023/01/04 09:26:22;;;;;;;5.03;3.50;;;7.40;1.00;;;;;;5069551;28;20378;-75
2023/01/04 09:28:50;;;;;;;4.60;2.70;;;7.50;1.00;;;;;;5070123;28;20028;-75
2023/01/04 09:31:20;;;;;;;4.38;2.03;;;7.50;1.00;;;;;;5062984;28;20036;-74
2023/01/04 09:33:46;;;;;;;6.05;2.55;;;7.50;1.00;;;;;;5063425;28;20102;-75
2023/01/04 09:36:14;;;;;;;3.45;1.73;;;7.60;1.00;;;;;;5043143;28;20060;-76
2023/01/04 09:38:40;;;;;;;3.00;1.65;;;7.60;1.00;;;;;;5071762;28;20047;-75
2023/01/04 09:41:13;;;;;;;3.95;1.73;;;7.60;1.00;;;;;;5046302;28;20041;-74
2023/01/04 09:43:47;;;;;;;3.47;1.67;;;7.60;1.00;;;;;;5062070;28;20359;-76
2023/01/04 09:46:36;;;;;;;3.03;1.58;;;7.70;1.00;;;;;;5060548;28;20033;-75
2023/01/04 09:49:31;;;;;;;7.28;2.97;;;7.70;1.00;;;;;;5071118;28;20146;-76
2023/01/04 09:52:16;;;;;;;5.07;2.05;;;7.70;1.00;;;;;;5070485;28;20036;-76
2023/01/04 09:54:44;;;;;;;2.80;1.60;;;7.70;1.00;;;;;;5050790;28;20060;-79
2023/01/04 09:57:39;;;;;;;3.45;1.85;;;7.70;1.00;;;;;;5070965;28;20029;-79
2023/01/04 10:00:34;;;;;;;4.22;1.40;;;7.80;1.00;;;;;;5052424;28;20048;-80
2023/01/04 10:03:12;;;;;;;2.83;1.92;;;7.80;1.00;;;;;;5071002;28;20385;-80
2023/01/04 10:05:39;;;;;;;3.05;1.55;;;7.90;1.00;;;;;;5065307;28;20043;-79
2023/01/04 10:08:15;;;;;;;3.40;1.20;;;7.90;1.00;;;;;;5074187;28;20029;-79
2023/01/04 10:10:57;;;;;;;2.97;1.15;;;8.00;1.00;;;;;;5067126;28;20048;-81
2023/01/04 10:13:52;;;;;;;4.43;1.75;;;8.00;1.00;;;;;;5072132;28;20048;-80
2023/01/04 10:16:33;;;;;;;4.15;1.60;;;8.00;1.00;;;;;;5068692;28;20044;-81
2023/01/04 10:19:44;;;;;;;3.08;1.05;;;8.00;1.00;;;;;;5066849;28;20044;-80
2023/01/04 10:22:30;;;;;;;4.85;1.38;;;8.00;1.00;;;;;;5051721;28;20036;-80
2023/01/04 10:25:12;;;;;;;3.15;1.13;;;8.00;1.00;;;;;;5069116;28;20474;-79
2023/01/04 10:28:05;;;;;;;3.30;1.33;;;8.00;1.00;;;;;;5070556;28;20037;-78
2023/01/04 10:30:55;;;;;;;4.18;1.13;;;8.00;1.00;;;;;;5053516;28;20048;-78
2023/01/04 10:33:24;;;;;;;3.47;1.30;;;8.00;1.00;;;;;;5070906;28;20029;-79
2023/01/04 10:35:51;;;;;;;2.72;0.80;;;8.10;1.00;;;;;;5069107;28;20040;-79
2023/01/04 10:38:35;;;;;;;3.28;1.13;;;8.10;1.00;;;;;;5070902;28;20039;-77
2023/01/04 10:41:08;;;;;;;2.15;0.90;;;8.10;1.00;;;;;;5069818;28;20056;-79
2023/01/04 10:44:13;;;;;;;3.33;1.00;;;8.20;1.00;;;;;;5070737;28;20036;-82
2023/01/04 10:46:43;;;;;;;1.30;0.70;;;8.20;1.00;;;;;;5070525;28;20050;-80
2023/01/04 10:49:22;;;;;;;4.05;1.10;;;8.20;1.00;;;;;;5053663;28;20037;-81
2023/01/04 10:52:04;;;;;;;13.73;6.63;;;8.20;1.00;;;;;;5070719;28;20458;-81
2023/01/04 10:54:48;;;;;;;2.85;1.52;;;8.20;1.00;;;;;;5064506;28;20028;-81
2023/01/04 10:57:21;;;;;;;3.25;1.25;;;8.20;1.00;;;;;;5072998;28;20028;-80
2023/01/04 11:00:15;;;;;;;3.30;0.98;;;8.20;1.00;;;;;;5063290;28;20033;-80
2023/01/04 11:02:49;;;;;;;3.92;1.67;;;8.20;1.00;;;;;;5063044;28;20457;-79
2023/01/04 11:05:25;;;;;;;3.63;1.90;;;8.20;1.00;;;;;;5077532;28;20052;-79
2023/01/04 11:07:56;;;;;;;4.93;1.58;;;8.20;1.00;;;;;;5035168;28;20048;-79
2023/01/04 11:10:30;;;;;;;2.08;0.80;;;8.20;1.00;;;;;;5069599;28;20029;-78
2023/01/04 11:12:56;;;;;;;1.65;0.88;;;8.20;1.00;;;;;;5077244;28;20041;-78
2023/01/04 11:15:23;;;;;;;2.83;1.08;;;8.30;1.00;;;;;;5073382;28;20458;-79
2023/01/04 11:17:50;;;;;;;4.03;1.60;;;8.30;1.00;;;;;;5082399;28;20055;-77
2023/01/04 11:20:17;;;;;;;4.10;1.70;;;8.30;1.00;;;;;;5094195;28;20450;-82
2023/01/04 11:22:55;;;;;;;1.52;1.02;;;8.40;1.00;;;;;;5092709;28;20024;-78
2023/01/04 11:25:23;;;;;;;2.55;1.27;;;8.40;1.00;;;;;;5091380;28;20063;-79
2023/01/04 11:27:49;;;;;;;2.50;1.35;;;8.40;1.00;;;;;;5093061;28;20024;-81
2023/01/04 11:30:20;;;;;;;3.35;1.00;;;8.50;1.00;;;;;;5090662;28;20035;-80
2023/01/04 11:33:21;;;;;;;4.82;2.00;;;8.50;1.00;;;;;;5091735;28;20043;-79
2023/01/04 11:35:51;;;;;;;4.30;1.75;;;8.40;1.00;;;;;;5066859;28;20044;-80
2023/01/04 11:38:23;;;;;;;2.13;1.20;;;8.50;1.00;;;;;;5091785;28;20032;-79
2023/01/04 11:41:01;;;;;;;2.47;1.05;;;8.50;1.00;;;;;;5092993;28;20043;-80
2023/01/04 11:43:38;;;;;;;3.08;1.13;;;8.50;1.00;;;;;;5093698;28;20032;-80
2023/01/04 11:46:16;;;;;;;3.70;1.13;;;8.50;1.00;;;;;;5092675;28;20047;-79
2023/01/04 11:48:45;;;;;;;2.03;0.80;;;8.60;1.00;;;;;;5093718;28;20038;-79
2023/01/04 11:51:24;;;;;;;2.00;1.15;;;8.70;1.00;;;;;;5092632;28;20040;-80
2023/01/04 11:54:13;;;;;;;1.77;0.82;;;8.70;1.00;;;;;;5092865;28;20354;-84
2023/01/04 11:57:00;;;;;;;2.90;0.95;;;8.70;1.00;;;;;;5093635;28;20024;-83
2023/01/04 11:59:27;;;;;;;2.58;0.95;;;8.80;1.00;;;;;;5093380;28;20051;-82
2023/01/04 12:02:18;;;;;;;2.97;1.00;;;8.90;1.00;;;;;;5087034;28;20044;-82
2023/01/04 12:04:44;;;;;;;2.70;1.17;;;8.90;1.00;;;;;;5085398;28;20397;-77
2023/01/04 12:07:31;;;;;;;4.65;1.65;;;8.90;1.00;;;;;;5091908;28;20043;-81
2023/01/04 12:09:59;;;;;;;2.70;1.20;;;8.90;1.00;;;;;;5092449;28;20032;-81
2023/01/04 12:12:29;;;;;;;5.72;2.25;;;9.00;1.00;;;;;;5091887;28;20036;-82
2023/01/04 12:14:56;;;;;;;8.83;5.67;;;9.00;1.00;;;;;;5091033;28;20036;-81
2023/01/04 12:17:38;;;;;;;6.10;2.78;;;9.10;1.00;;;;;;5079935;28;20060;-82
2023/01/04 12:20:14;;;;;;;3.20;1.80;;;9.10;1.00;;;;;;5072212;28;20609;-82
2023/01/04 12:22:40;;;;;;;3.20;1.40;;;9.20;1.00;;;;;;5072846;28;20036;-83
2023/01/04 12:25:24;;;;;;;1.65;0.90;;;9.20;1.00;;;;;;5069486;28;20048;-82
2023/01/04 12:27:51;;;;;;;3.33;1.40;;;9.20;1.00;;;;;;5063968;28;20040;-81
2023/01/04 12:30:43;;;;;;;2.63;1.33;;;9.30;1.00;;;;;;5072639;28;20032;-80
2023/01/04 12:33:28;;;;;;;4.28;0.85;;;9.40;1.00;;;;;;5071854;28;20032;-81
2023/01/04 12:35:57;;;;;;;2.58;1.20;;;9.40;1.00;;;;;;5070638;28;20355;-81
2023/01/04 12:38:51;;;;;;;3.20;1.27;;;9.40;1.00;;;;;;5078793;28;20031;-80
2023/01/04 12:41:18;;;;;;;2.22;1.13;;;9.50;1.00;;;;;;5072103;28;20032;-81
2023/01/04 12:43:46;;;;;;;2.50;1.00;;;9.50;1.00;;;;;;5071241;28;20477;-77
2023/01/04 12:49:38;;;;;;;2.90;1.60;;;9.60;1.00;;;;;;5073029;28;20048;-81
2023/01/04 12:52:08;;;;;;;2.08;1.40;;;9.60;1.00;;;;;;5054345;28;20584;-80
2023/01/04 12:55:22;;;;;;;2.97;1.30;;;9.60;1.00;;;;;;5069037;28;20040;-80
2023/01/04 12:57:48;;;;;;;2.08;0.95;;;9.60;1.00;;;;;;5058561;28;20099;-79
2023/01/04 13:00:15;;;;;;;6.07;2.15;;;9.70;1.00;;;;;;5070150;28;20036;-80
2023/01/04 13:03:14;;;;;;;3.63;1.52;;;9.60;1.00;;;;;;5052268;28;20044;-78
2023/01/04 13:05:44;;;;;;;3.97;2.65;;;9.60;1.00;;;;;;5068165;28;20047;-77
2023/01/04 13:08:15;;;;;;;4.75;1.92;;;9.60;1.00;;;;;;5069902;28;20037;-78
2023/01/04 13:10:54;;;;;;;4.55;2.85;;;9.60;1.00;;;;;;5070230;28;20028;-78
2023/01/04 13:13:55;;;;;;;3.65;1.92;;;9.60;1.00;;;;;;5069994;28;20388;-78
2023/01/04 13:16:29;;;;;;;7.35;4.07;;;9.70;1.00;;;;;;5069735;28;20052;-78
2023/01/04 13:18:58;;;;;;;3.40;1.95;;;9.60;1.00;;;;;;5068934;28;20048;-78
2023/01/04 13:21:39;;;;;;;6.55;3.33;;;9.60;1.00;;;;;;5071480;28;20040;-78
2023/01/04 13:24:24;;;;;;;5.85;3.38;;;9.50;1.00;;;;;;5069327;28;20111;-78
2023/01/04 13:26:52;;;;;;;3.58;2.28;;;9.40;1.00;;;;;;5070928;28;20362;-77
2023/01/04 13:29:27;;;;;;;5.28;2.38;;;9.50;1.00;;;;;;5071613;28;20054;-77
2023/01/04 13:32:10;;;;;;;4.80;2.45;;;9.40;1.00;;;;;;5070907;28;20028;-76
2023/01/04 13:34:51;;;;;;;5.72;3.45;;;9.40;1.00;;;;;;5069347;28;20051;-76
2023/01/04 13:37:25;;;;;;;;;;;9.30;1.00;;;;;;5071594;28;20374;-76
2023/01/04 13:40:14;;;;;;;2.47;1.50;;;9.30;1.00;;;;;;5070480;28;19912;-77
2023/01/04 13:42:44;;;;;;;5.13;3.03;;;9.20;1.00;;;;;;5071193;28;20037;-74
2023/01/04 13:45:37;;;;;;;5.28;2.17;;;9.20;7.40;;;;;;5067919;28;20139;-78
2023/01/04 13:48:09;;;;;;;3.40;1.92;;;9.10;14.00;;;;;;5070473;28;20028;-76
2023/01/04 13:50:45;;;;;;;3.10;2.30;;;9.00;17.10;;;;;;5070861;28;20028;-78
2023/01/04 13:53:31;;;;;;;2.53;0.90;;;9.10;14.20;;;;;;5065624;28;20049;-78
2023/01/04 13:56:00;;;;;;;2.58;1.13;;;9.10;13.30;;;;;;5068725;28;20048;-79
2023/01/04 13:58:33;;;;;;;2.15;0.98;;;9.10;10.50;;;;;;5070952;28;20028;-79
2023/01/04 14:01:20;;;;;;;3.30;1.42;;;9.10;9.80;;;;;;5070230;28;20048;-78
2023/01/04 14:03:50;;;;;;;3.45;1.70;;;9.10;9.40;;;;;;5069709;28;20041;-77